Nearby METAR Reports

 

KCXY - Harrisburg, Pennsylvania, USA
Distance from station: E 9mi, 14km
Updated: Sat, 03-Dec-2022 8:56pm EST
Clear
Clear
 Wind from NW
Wind: NW 10 mph , 17 km/h, Gust: 21 mph , 33 km/h
Temperature: 46°F , 8°C
Wind Chill: 41°F , 5°C
Dew Point: 27°F , -3°C
Humidity: 46%
Barometer: 30.22 inHg , 1023.4 hPa
Clouds: Clear
Visibility: 10 miles , 16 km
2022/12/04 01:56 KCXY 040156Z 31009G18KT 10SM CLR 08/M03 A3022 RMK AO2 SLP234 T00781028
KMDT - Middletown, Pennsylvania, USA
Distance from station: E 13mi, 21km
Updated: Sat, 03-Dec-2022 8:56pm EST
Few Clouds
Few Clouds
 Wind from NW
Wind: NW 14 mph , 22 km/h, Gust: 23 mph , 37 km/h
Temperature: 45°F , 7°C
Wind Chill: 39°F , 4°C
Dew Point: 28°F , -2°C
Humidity: 53%
Barometer: 30.21 inHg , 1023 hPa
Clouds: Few Clouds
Visibility: 10 miles , 16 km
Cloud details: Few Clouds 6000 ft
2022/12/04 01:56 KMDT 040156Z 31012G20KT 10SM FEW060 07/M02 A3021 RMK AO2 SLP232 T00671017
 
KTHV - York, Pennsylvania, USA
Distance from station: SSE 22mi, 36km
Updated: Sat, 03-Dec-2022 8:53pm EST
Mostly cloudy
Mostly cloudy
 Wind from WNW
Wind: WNW 3 mph , 6 km/h
Temperature: 39°F , 4°C
Dew Point: 30°F , -1°C
Humidity: 70%
Barometer: 30.21 inHg , 1023 hPa
Clouds: Mostly cloudy
Cloud details: Mostly cloudy 4700 ft
2022/12/04 01:53 KTHV 040153Z AUTO 29003KT BKN047 04/M01 A3021 RMK AO2 SLP236 T00391006 $
KMUI - Muir Aaf/Indiant, Pennsylvania, USA
Distance from station: ENE 27mi, 44km
Updated: Sat, 03-Dec-2022 8:55pm EST

 
Visibility: M 10 miles , 16 km
2022/12/04 01:55 KMUI 040155Z AUTO M 10SM M 06/M04 A3018 RMK AO2 SLP226 T00641038 CHINO RWY07 $
 
KLNS - Lancaster, Pennsylvania, USA
Distance from station: E 38mi, 62km
Updated: Sat, 03-Dec-2022 8:53pm EST
Clear
Clear
 Wind from WNW
Wind: WNW 10 mph , 17 km/h
Temperature: 45°F , 7°C
Wind Chill: 40°F , 4°C
Dew Point: 28°F , -2°C
Humidity: 53%
Barometer: 30.21 inHg , 1023 hPa
Clouds: Clear
Visibility: 10 miles , 16 km
2022/12/04 01:53 KLNS 040153Z 30009KT 10SM CLR 07/M02 A3021 RMK AO2 SLP230 T00671017 $
KRYT - Fountain Dale, Pennsylvania, USA
Distance from station: SSW 40mi, 65km
Updated: Mon, 13-Nov-2017 7:53am EST
NOT Current
Mist, Overcast
Mist, Overcast
 Wind from calm
Wind: Calm
Temperature: 37°F , 3°C
Dew Point: 34°F , 1°C
Humidity: 87%
Barometer: 30.31 inHg , 1026.4 hPa
Summary: Mist
Clouds: Overcast
Visibility: 5 miles , 8 km
Cloud details: Overcast 700 ft
2017/11/13 12:53 KRYT 131253Z AUTO 00000KT 5SM BR OVC007 03/01 A3031 RMK AO2 SLP275 T00280011 TSNO $
 
KSEG - Selinsgrove, Pennsylvania, USA
Distance from station: N 42mi, 67km
Updated: Sat, 03-Dec-2022 8:53pm EST
Overcast
Overcast
 Wind from WNW
Wind: WNW 7 mph , 11 km/h
Temperature: 43°F , 6°C
Wind Chill: 39°F , 4°C
Dew Point: 27°F , -3°C
Humidity: 53%
Barometer: 30.22 inHg , 1023.4 hPa
Clouds: Overcast
Visibility: 10 miles , 16 km
Cloud details: Overcast 5000 ft
2022/12/04 01:53 KSEG 040153Z AUTO 30006KT 10SM OVC050 06/M03 A3022 RMK AO2 SLP237 T00611028 $
KDMW - Carroll Cnty, Maryland, USA
Distance from station: S 43mi, 69km
Updated: Sat, 03-Dec-2022 9:15pm EST
Clear
Clear
 Wind from NW
Wind: NW 12 mph , 19 km/h
Temperature: 46°F , 8°C
Wind Chill: 40°F , 4°C
Dew Point: 34°F , 1°C
Humidity: 62%
Barometer: 30.22 inHg , 1023.4 hPa
Clouds: Clear
Visibility: 10 miles , 16 km
2022/12/04 02:15 KDMW 040215Z AUTO 31010KT 10SM CLR 08/01 A3022 RMK AO2
 
KRSP - Camp David, Maryland, USA
Distance from station: SSW 46mi, 74km
Updated: Sat, 03-Dec-2022 7:54pm EST
NOT Current
Clear
Clear
 Wind from WNW
Wind: WNW 20 mph , 31 km/h, Gust: 39 mph , 63 km/h
Temperature: 41°F , 5°C
Wind Chill: 32°F , 0°C
Dew Point: 30°F , -1°C
Humidity: 66%
Barometer: 30.13 inHg , 1020.3 hPa
Clouds: Clear
Visibility: 10 miles , 16 km
2022/12/04 00:54 KRSP 040054Z AUTO 30017G34KT 10SM CLR 05/M01 A3013 RMK AO2 PK WND 30034/0049 SLP217 T00501006 $